Time,TemperatureF,DewpointF,PressureIn,WindDirection,WindDirectionDegrees,WindSpeedMPH,WindSpeedGustMPH,Humidity,HourlyPrecipIn,Conditions,Clouds,dailyrainin,SoftwareType,DateUTC
2013-02-04 00:14:00,16.2,14.0,29.71,NNE,22,5.3,-999.0,91,-99.99,,,0.00,Acu-Link.com,2013-02-04 06:14:00,
2013-02-04 00:30:00,16.0,13.8,29.72,WNW,292,7.3,-999.0,91,-99.99,,,0.00,Acu-Link.com,2013-02-04 06:30:00,
2013-02-04 00:45:00,15.6,13.5,29.73,NE,45,10.4,-999.0,91,-99.99,,,0.00,Acu-Link.com,2013-02-04 06:45:00,
2013-02-04 01:00:00,15.4,13.3,29.73,NNE,22,9.9,-999.0,91,-99.99,,,0.00,Acu-Link.com,2013-02-04 07:00:00,
2013-02-04 01:15:00,15.8,13.4,29.73,NE,45,6.3,-999.0,90,-99.99,,,0.00,Acu-Link.com,2013-02-04 07:15:00,
2013-02-04 01:30:00,15.6,12.9,29.73,NNE,22,10.9,-999.0,89,-99.99,,,0.00,Acu-Link.com,2013-02-04 07:30:00,
2013-02-04 01:46:00,15.4,12.7,29.74,NE,45,6.8,-999.0,89,-99.99,,,0.00,Acu-Link.com,2013-02-04 07:46:00,
2013-02-04 02:01:00,15.4,12.7,29.75,NNE,22,9.9,-999.0,89,-99.99,,,0.00,Acu-Link.com,2013-02-04 08:01:00,
2013-02-04 02:16:00,15.4,12.5,29.75,WNW,292,7.8,-999.0,88,-99.99,,,0.00,Acu-Link.com,2013-02-04 08:16:00,
2013-02-04 02:32:00,15.6,12.4,29.77,North,0,9.4,-999.0,87,-99.99,,,0.00,Acu-Link.com,2013-02-04 08:32:00,
2013-02-04 02:47:00,15.6,12.4,29.77,NNE,22,7.8,-999.0,87,-99.99,,,0.00,Acu-Link.com,2013-02-04 08:47:00,
2013-02-04 03:02:00,15.4,12.0,29.77,NE,45,8.3,-999.0,86,-99.99,,,0.00,Acu-Link.com,2013-02-04 09:02:00,
2013-02-04 03:17:00,15.3,12.1,29.78,ENE,67,4.7,-999.0,87,-99.99,,,0.00,Acu-Link.com,2013-02-04 09:17:00,
2013-02-04 03:32:00,14.9,11.7,29.78,NE,45,7.8,-999.0,87,-99.99,,,0.00,Acu-Link.com,2013-02-04 09:32:00,
2013-02-04 03:48:00,14.4,11.3,29.79,North,0,7.3,-999.0,87,-99.99,,,0.00,Acu-Link.com,2013-02-04 09:48:00,
2013-02-04 04:03:00,14.2,11.1,29.80,ENE,67,6.8,-999.0,87,-99.99,,,0.00,Acu-Link.com,2013-02-04 10:03:00,
2013-02-04 04:18:00,14.0,10.6,29.81,ENE,67,4.7,-999.0,86,-99.99,,,0.00,Acu-Link.com,2013-02-04 10:18:00,
2013-02-04 04:33:00,13.8,10.4,29.81,NNE,22,8.3,-999.0,86,-99.99,,,0.00,Acu-Link.com,2013-02-04 10:33:00,
2013-02-04 04:49:00,13.6,10.2,29.81,NE,45,8.9,-999.0,86,-99.99,,,0.00,Acu-Link.com,2013-02-04 10:49:00,
2013-02-04 05:04:00,13.5,9.8,29.82,NE,45,8.9,-999.0,85,-99.99,,,0.00,Acu-Link.com,2013-02-04 11:04:00,
2013-02-04 05:19:00,13.5,9.8,29.83,NNW,337,8.3,-999.0,85,-99.99,,,0.00,Acu-Link.com,2013-02-04 11:19:00,
2013-02-04 05:34:00,13.5,9.8,29.84,WNW,292,6.3,-999.0,85,-99.99,,,0.00,Acu-Link.com,2013-02-04 11:34:00,
2013-02-04 05:50:00,13.5,9.8,29.84,North,0,4.2,-999.0,85,-99.99,,,0.00,Acu-Link.com,2013-02-04 11:50:00,
2013-02-04 06:05:00,13.3,9.4,29.84,NNE,22,7.8,-999.0,84,-99.99,,,0.00,Acu-Link.com,2013-02-04 12:05:00,
2013-02-04 06:20:00,13.3,9.7,29.83,North,0,5.3,-999.0,85,-99.99,,,0.00,Acu-Link.com,2013-02-04 12:20:00,
2013-02-04 06:36:00,13.3,10.2,29.84,WNW,292,8.3,-999.0,87,-99.99,,,0.00,Acu-Link.com,2013-02-04 12:36:00,
2013-02-04 06:51:00,12.7,8.8,29.85,NNE,22,10.9,-999.0,84,-99.99,,,0.00,Acu-Link.com,2013-02-04 12:51:00,
2013-02-04 07:06:00,12.2,8.3,29.85,NE,45,4.2,-999.0,84,-99.99,,,0.00,Acu-Link.com,2013-02-04 13:06:00,
2013-02-04 07:21:00,11.8,8.2,29.85,NNE,22,4.7,-999.0,85,-99.99,,,0.00,Acu-Link.com,2013-02-04 13:21:00,
2013-02-04 07:37:00,11.5,7.9,29.84,NE,45,9.9,-999.0,85,-99.99,,,0.00,Acu-Link.com,2013-02-04 13:37:00,
2013-02-04 07:52:00,10.9,7.3,29.85,NNE,22,6.3,-999.0,85,-99.99,,,0.00,Acu-Link.com,2013-02-04 13:52:00,
2013-02-04 08:07:00,10.8,7.2,29.87,NNE,22,7.3,-999.0,85,-99.99,,,0.00,Acu-Link.com,2013-02-04 14:07:00,
2013-02-04 08:23:00,10.9,7.3,29.88,NNW,337,6.3,-999.0,85,-99.99,,,0.00,Acu-Link.com,2013-02-04 14:23:00,
2013-02-04 08:38:00,10.8,6.9,29.89,ENE,67,5.8,-999.0,84,-99.99,,,0.00,Acu-Link.com,2013-02-04 14:38:00,
2013-02-04 08:53:00,10.9,7.0,29.90,NE,45,6.3,-999.0,84,-99.99,,,0.00,Acu-Link.com,2013-02-04 14:53:00,
2013-02-04 09:09:00,10.9,6.5,29.91,WNW,292,5.8,-999.0,82,-99.99,,,0.00,Acu-Link.com,2013-02-04 15:09:00,
2013-02-04 09:24:00,11.5,7.1,29.90,NNW,337,5.3,-999.0,82,-99.99,,,0.00,Acu-Link.com,2013-02-04 15:24:00,
2013-02-04 09:39:00,11.8,7.1,29.89,NNE,22,5.3,-999.0,81,-99.99,,,0.00,Acu-Link.com,2013-02-04 15:39:00,
2013-02-04 09:54:00,12.7,8.0,29.88,NE,45,4.7,-999.0,81,-99.99,,,0.00,Acu-Link.com,2013-02-04 15:54:00,
2013-02-04 10:10:00,13.6,8.0,29.87,NNE,22,6.8,-999.0,78,-99.99,,,0.00,Acu-Link.com,2013-02-04 16:10:00,
2013-02-04 10:25:00,12.4,7.4,29.87,East,90,3.2,-999.0,80,-99.99,,,0.00,Acu-Link.com,2013-02-04 16:25:00,
2013-02-04 10:40:00,13.8,7.9,29.87,North,0,2.2,-999.0,77,-99.99,,,0.00,Acu-Link.com,2013-02-04 16:40:00,
2013-02-04 10:56:00,14.5,8.3,29.87,WNW,292,2.2,-999.0,76,-99.99,,,0.00,Acu-Link.com,2013-02-04 16:56:00,
2013-02-04 11:11:00,15.6,8.8,29.87,WNW,292,3.2,-999.0,74,-99.99,,,0.00,Acu-Link.com,2013-02-04 17:11:00,
2013-02-04 11:26:00,16.5,9.4,29.88,SSE,157,3.7,-999.0,73,-99.99,,,0.00,Acu-Link.com,2013-02-04 17:26:00,
2013-02-04 11:42:00,16.9,9.2,29.87,WNW,292,3.2,-999.0,71,-99.99,,,0.00,Acu-Link.com,2013-02-04 17:42:00,
2013-02-04 11:57:00,18.5,10.1,29.86,SSW,202,6.8,-999.0,69,-99.99,,,0.00,Acu-Link.com,2013-02-04 17:57:00,
2013-02-04 12:12:00,19.0,11.2,29.86,NNW,337,3.2,-999.0,71,-99.99,,,0.00,Acu-Link.com,2013-02-04 18:12:00,
2013-02-04 12:27:00,18.7,11.5,29.86,WNW,292,7.3,-999.0,73,-99.99,,,0.00,Acu-Link.com,2013-02-04 18:27:00,
2013-02-04 12:43:00,18.9,12.0,29.86,SSE,157,3.7,-999.0,74,-99.99,,,0.00,Acu-Link.com,2013-02-04 18:43:00,
2013-02-04 12:58:00,18.5,12.2,29.85,WSW,247,6.3,-999.0,76,-99.99,,,0.00,Acu-Link.com,2013-02-04 18:58:00,
2013-02-04 13:13:00,18.9,12.6,29.85,SW,225,4.7,-999.0,76,-99.99,,,0.00,Acu-Link.com,2013-02-04 19:13:00,
2013-02-04 13:28:00,18.9,12.9,29.84,SSW,202,3.2,-999.0,77,-99.99,,,0.00,Acu-Link.com,2013-02-04 19:28:00,
2013-02-04 13:44:00,19.4,13.4,29.83,SW,225,6.8,-999.0,77,-99.99,,,0.00,Acu-Link.com,2013-02-04 19:44:00,
2013-02-04 13:59:00,19.9,13.9,29.82,WSW,247,5.8,-999.0,77,-99.99,,,0.00,Acu-Link.com,2013-02-04 19:59:00,
2013-02-04 14:14:00,19.6,13.9,29.81,SSW,202,3.2,-999.0,78,-99.99,,,0.00,Acu-Link.com,2013-02-04 20:14:00,
2013-02-04 14:30:00,20.1,14.4,29.81,West,270,2.2,-999.0,78,-99.99,,,0.00,Acu-Link.com,2013-02-04 20:30:00,
2013-02-04 14:45:00,20.1,14.7,29.80,SSW,202,6.8,-999.0,79,-99.99,,,0.00,Acu-Link.com,2013-02-04 20:45:00,
2013-02-04 15:00:00,20.5,14.8,29.80,SSW,202,7.3,-999.0,78,-99.99,,,0.00,Acu-Link.com,2013-02-04 21:00:00,
2013-02-04 15:15:00,20.7,15.2,29.79,SW,225,5.8,-999.0,79,-99.99,,,0.00,Acu-Link.com,2013-02-04 21:15:00,
2013-02-04 15:31:00,20.8,15.6,29.78,SSW,202,5.3,-999.0,80,-99.99,,,0.00,Acu-Link.com,2013-02-04 21:31:00,
2013-02-04 15:46:00,20.7,15.5,29.78,South,180,6.8,-999.0,80,-99.99,,,0.00,Acu-Link.com,2013-02-04 21:46:00,
2013-02-04 16:01:00,20.5,15.6,29.78,South,180,5.3,-999.0,81,-99.99,,,0.00,Acu-Link.com,2013-02-04 22:01:00,
2013-02-04 16:16:00,20.1,15.5,29.76,SW,225,4.7,-999.0,82,-99.99,,,0.00,Acu-Link.com,2013-02-04 22:16:00,
2013-02-04 16:32:00,20.3,16.0,29.75,WSW,247,8.3,-999.0,83,-99.99,,,0.00,Acu-Link.com,2013-02-04 22:32:00,
2013-02-04 16:47:00,20.3,16.3,29.75,SSW,202,5.8,-999.0,84,-99.99,,,0.00,Acu-Link.com,2013-02-04 22:47:00,
2013-02-04 17:02:00,20.5,16.4,29.75,SW,225,4.2,-999.0,84,-99.99,,,0.00,Acu-Link.com,2013-02-04 23:02:00,
2013-02-04 17:18:00,20.8,17.0,29.74,SSW,202,4.7,-999.0,85,-99.99,,,0.00,Acu-Link.com,2013-02-04 23:18:00,
2013-02-04 17:33:00,20.7,16.9,29.72,SSW,202,6.8,-999.0,85,-99.99,,,0.00,Acu-Link.com,2013-02-04 23:33:00,
2013-02-04 17:48:00,20.7,17.2,29.71,South,180,6.3,-999.0,86,-99.99,,,0.00,Acu-Link.com,2013-02-04 23:48:00,
2013-02-04 18:04:00,20.7,17.2,29.71,South,180,8.3,-999.0,86,-99.99,,,0.00,Acu-Link.com,2013-02-05 00:04:00,
2013-02-04 18:19:00,20.7,17.2,29.71,SW,225,6.8,-999.0,86,-99.99,,,0.00,Acu-Link.com,2013-02-05 00:19:00,
2013-02-04 18:34:00,20.7,17.7,29.70,SSE,157,8.3,-999.0,88,-99.99,,,0.00,Acu-Link.com,2013-02-05 00:34:00,
2013-02-04 18:50:00,20.7,18.0,29.70,SE,135,11.9,-999.0,89,-99.99,,,0.00,Acu-Link.com,2013-02-05 00:50:00,
2013-02-04 19:05:00,20.8,18.1,29.71,SSW,202,8.9,-999.0,89,-99.99,,,0.00,Acu-Link.com,2013-02-05 01:05:00,
2013-02-04 19:20:00,21.0,18.3,29.71,SSW,202,6.8,-999.0,89,-99.99,,,0.00,Acu-Link.com,2013-02-05 01:20:00,
2013-02-04 19:35:00,21.0,18.3,29.71,SSW,202,7.8,-999.0,89,-99.99,,,0.00,Acu-Link.com,2013-02-05 01:35:00,
2013-02-04 19:51:00,21.2,18.5,29.71,South,180,7.8,-999.0,89,-99.99,,,0.00,Acu-Link.com,2013-02-05 01:51:00,
2013-02-04 20:06:00,21.4,18.7,29.70,South,180,6.8,-999.0,89,-99.99,,,0.00,Acu-Link.com,2013-02-05 02:06:00,
2013-02-04 20:21:00,21.6,19.1,29.68,SSW,202,7.3,-999.0,90,-99.99,,,0.00,Acu-Link.com,2013-02-05 02:21:00,
2013-02-04 20:37:00,21.6,19.1,29.69,SSW,202,3.7,-999.0,90,-99.99,,,0.00,Acu-Link.com,2013-02-05 02:37:00,
2013-02-04 20:52:00,21.7,19.5,29.68,SW,225,6.3,-999.0,91,-99.99,,,0.00,Acu-Link.com,2013-02-05 02:52:00,
2013-02-04 21:07:00,21.7,19.5,29.69,South,180,3.2,-999.0,91,-99.99,,,0.00,Acu-Link.com,2013-02-05 03:07:00,
2013-02-04 21:22:00,21.6,19.4,29.68,SSW,202,3.7,-999.0,91,-99.99,,,0.00,Acu-Link.com,2013-02-05 03:22:00,
2013-02-04 21:38:00,21.2,19.5,29.67,SE,135,4.7,-999.0,93,-99.99,,,0.00,Acu-Link.com,2013-02-05 03:38:00,
2013-02-04 21:53:00,21.0,19.3,29.66,SSE,157,5.3,-999.0,93,-99.99,,,0.00,Acu-Link.com,2013-02-05 03:53:00,
2013-02-04 22:08:00,20.7,19.3,29.65,SSE,157,5.8,-999.0,94,-99.99,,,0.00,Acu-Link.com,2013-02-05 04:08:00,
2013-02-04 22:24:00,19.8,18.6,29.64,South,180,8.3,-999.0,95,-99.99,,,0.00,Acu-Link.com,2013-02-05 04:24:00,
2013-02-04 22:39:00,20.1,18.9,29.64,South,180,4.7,-999.0,95,-99.99,,,0.00,Acu-Link.com,2013-02-05 04:39:00,
2013-02-04 22:54:00,20.8,19.4,29.63,SSE,157,6.3,-999.0,94,-99.99,,,0.00,Acu-Link.com,2013-02-05 04:54:00,
2013-02-04 23:10:00,21.6,20.1,29.63,South,180,7.8,-999.0,94,-99.99,,,0.00,Acu-Link.com,2013-02-05 05:10:00,
2013-02-04 23:25:00,21.6,19.9,29.62,SSE,157,5.3,-999.0,93,-99.99,,,0.00,Acu-Link.com,2013-02-05 05:25:00,
2013-02-04 23:40:00,21.6,19.9,29.62,SSE,157,5.3,-999.0,93,-99.99,,,0.00,Acu-Link.com,2013-02-05 05:40:00,
2013-02-04 23:56:00,21.4,19.7,29.61,ESE,112,3.7,-999.0,93,-99.99,,,0.00,Acu-Link.com,2013-02-05 05:56:00,